createdAt,value
2019-02-18T00:02:12.286Z,94380.98
2019-02-18T00:04:40.118Z,94382.33
2019-02-18T00:07:14.557Z,94377.30
2019-02-18T00:09:37.713Z,94373.07
2019-02-18T00:12:05.533Z,94370.84
2019-02-18T00:14:33.378Z,94368.95
2019-02-18T00:17:01.231Z,94363.77
2019-02-18T00:19:29.076Z,94366.63
2019-02-18T00:21:56.942Z,94369.89
2019-02-18T00:24:24.763Z,94364.25
2019-02-18T00:26:52.686Z,94361.34
2019-02-18T00:29:20.561Z,94359.00
2019-02-18T00:31:48.423Z,94357.64
2019-02-18T00:34:16.360Z,94362.95
2019-02-18T00:36:44.528Z,94352.91
2019-02-18T00:39:12.360Z,94352.28
2019-02-18T00:41:40.170Z,94348.30
2019-02-18T00:44:07.984Z,94343.77
2019-02-18T00:46:35.918Z,94351.10
2019-02-18T00:49:03.716Z,94344.28
2019-02-18T00:51:31.559Z,94348.34
2019-02-18T00:53:59.437Z,94351.06
2019-02-18T00:56:27.277Z,94352.40
2019-02-18T00:58:55.115Z,94344.87
2019-02-18T01:01:22.948Z,94351.41
2019-02-18T01:03:50.780Z,94351.94
2019-02-18T01:06:18.654Z,94345.22
2019-02-18T01:08:46.466Z,94352.27
2019-02-18T01:11:14.669Z,94346.09
2019-02-18T01:13:42.524Z,94347.63
2019-02-18T01:16:10.342Z,94344.85
2019-02-18T01:18:38.214Z,94339.45
2019-02-18T01:21:06.104Z,94343.78
2019-02-18T01:23:33.952Z,94340.08
2019-02-18T01:26:01.807Z,94339.20
2019-02-18T01:28:29.656Z,94334.12
2019-02-18T01:30:57.581Z,94331.36
2019-02-18T01:33:25.421Z,94338.84
2019-02-18T01:35:53.270Z,94336.41
2019-02-18T01:38:21.101Z,94333.40
2019-02-18T01:40:48.905Z,94334.47
2019-02-18T01:43:16.745Z,94334.65
2019-02-18T01:45:44.599Z,94331.17
2019-02-18T01:48:12.434Z,94333.09
2019-02-18T01:50:40.301Z,94330.41
2019-02-18T01:53:08.099Z,94332.56
2019-02-18T01:55:35.935Z,94329.97
2019-02-18T01:58:03.855Z,94330.84
2019-02-18T02:00:32.068Z,94325.00
2019-02-18T02:03:00.232Z,94323.16
2019-02-18T02:05:28.161Z,94325.94
2019-02-18T02:07:56.783Z,94322.41
2019-02-18T02:10:25.259Z,94316.63
2019-02-18T02:13:31.913Z,94318.16
2019-02-18T02:16:02.367Z,94316.00
2019-02-18T02:18:30.187Z,94315.41
2019-02-18T02:20:58.010Z,94318.27
2019-02-18T02:23:27.123Z,94311.17
2019-02-18T02:25:54.950Z,94306.63
2019-02-18T02:28:22.788Z,94300.98
2019-02-18T02:30:50.592Z,94305.66
2019-02-18T02:33:18.406Z,94305.58
2019-02-18T02:35:46.275Z,94304.28
2019-02-18T02:38:14.116Z,94306.36
2019-02-18T02:40:42.569Z,94309.19
2019-02-18T02:43:10.418Z,94307.22
2019-02-18T02:45:38.223Z,94309.45
2019-02-18T02:48:06.280Z,94305.58
2019-02-18T02:50:34.087Z,94300.37
2019-02-18T02:53:01.911Z,94299.63
2019-02-18T02:55:29.758Z,94301.45
2019-02-18T02:57:57.613Z,94299.77
2019-02-18T03:00:25.436Z,94291.58
2019-02-18T03:02:53.280Z,94289.98
2019-02-18T03:05:21.092Z,94292.49
2019-02-18T03:07:49.007Z,94291.43
2019-02-18T03:10:16.860Z,94290.73
2019-02-18T03:12:44.769Z,94296.80
2019-02-18T03:15:14.503Z,94295.97
2019-02-18T03:17:42.417Z,94288.72
2019-02-18T03:20:10.483Z,94294.13
2019-02-18T03:22:38.359Z,94289.42
2019-02-18T03:25:28.645Z,94288.28
2019-02-18T03:28:49.287Z,94293.02
2019-02-18T03:31:22.354Z,94296.04
2019-02-18T03:34:05.030Z,94297.25
2019-02-18T03:36:32.847Z,94295.95
2019-02-18T03:39:00.663Z,94302.41
2019-02-18T03:41:28.515Z,94291.48
2019-02-18T03:43:56.360Z,94297.83
2019-02-18T03:46:24.213Z,94298.86
2019-02-18T03:48:52.066Z,94301.20
2019-02-18T03:51:19.888Z,94295.95
2019-02-18T03:53:48.074Z,94299.20
2019-02-18T03:56:15.893Z,94303.79
2019-02-18T03:58:43.755Z,94292.52
2019-02-18T04:01:11.629Z,94294.88
2019-02-18T04:03:39.480Z,94291.52
2019-02-18T04:06:07.308Z,94296.84
2019-02-18T04:08:42.355Z,94301.91
2019-02-18T04:11:04.842Z,94297.56
2019-02-18T04:13:32.661Z,94295.90
2019-02-18T04:16:00.480Z,94294.17
2019-02-18T04:18:28.324Z,94296.52
2019-02-18T04:20:56.193Z,94295.90
2019-02-18T04:23:24.040Z,94296.48
2019-02-18T04:25:51.868Z,94295.60
2019-02-18T04:28:19.699Z,94288.52
2019-02-18T04:30:47.812Z,94288.34
2019-02-18T04:33:15.641Z,94296.10
2019-02-18T04:35:43.495Z,94289.55
2019-02-18T04:38:11.347Z,94289.92
2019-02-18T04:40:39.246Z,94291.22
2019-02-18T04:43:07.114Z,94289.91
2019-02-18T04:45:34.920Z,94288.53
2019-02-18T04:48:02.785Z,94288.98
2019-02-18T04:50:30.634Z,94293.39
2019-02-18T04:52:58.491Z,94289.31
2019-02-18T04:55:26.369Z,94294.25
2019-02-18T04:57:54.183Z,94291.07
2019-02-18T05:00:22.085Z,94292.91
2019-02-18T05:02:49.903Z,94289.09
2019-02-18T05:05:17.746Z,94287.98
2019-02-18T05:07:45.636Z,94285.56
2019-02-18T05:10:13.475Z,94282.38
2019-02-18T05:12:41.274Z,94285.83
2019-02-18T05:15:09.276Z,94281.88
2019-02-18T05:17:37.102Z,94280.39
2019-02-18T05:20:04.986Z,94276.34
2019-02-18T05:22:32.831Z,94278.30
2019-02-18T05:25:00.703Z,94273.77
2019-02-18T05:27:33.331Z,94277.80
2019-02-18T05:29:58.297Z,94275.61
2019-02-18T05:32:26.160Z,94273.33
2019-02-18T05:34:53.985Z,94274.44
2019-02-18T05:37:21.848Z,94276.94
2019-02-18T05:39:49.680Z,94274.86
2019-02-18T05:42:17.500Z,94275.80
2019-02-18T05:44:45.398Z,94275.73
2019-02-18T05:47:13.257Z,94274.47
2019-02-18T05:49:41.119Z,94270.90
2019-02-18T05:52:08.987Z,94276.57
2019-02-18T05:54:36.973Z,94273.80
2019-02-18T05:57:04.844Z,94268.41
2019-02-18T05:59:32.690Z,94268.32
2019-02-18T06:02:00.676Z,94275.36
2019-02-18T06:04:28.547Z,94266.47
2019-02-18T06:06:56.441Z,94264.07
2019-02-18T06:09:29.781Z,94267.30
2019-02-18T06:11:54.115Z,94267.21
2019-02-18T06:14:21.914Z,94271.38
2019-02-18T06:16:49.801Z,94269.41
2019-02-18T06:19:17.656Z,94273.16
2019-02-18T06:21:45.495Z,94272.80
2019-02-18T06:24:13.368Z,94273.06
2019-02-18T06:26:41.165Z,94272.45
2019-02-18T06:29:09.022Z,94272.25
2019-02-18T06:31:36.878Z,94274.45
2019-02-18T06:34:04.723Z,94269.94
2019-02-18T06:36:32.588Z,94272.70
2019-02-18T06:39:00.419Z,94274.49
2019-02-18T06:41:28.308Z,94268.88
2019-02-18T06:43:56.115Z,94273.95
2019-02-18T06:46:30.029Z,94262.87
2019-02-18T06:49:20.118Z,94272.27
2019-02-18T06:51:48.045Z,94273.20
2019-02-18T06:54:16.044Z,94271.81
2019-02-18T06:56:56.924Z,94273.20
2019-02-18T06:59:28.963Z,94275.05
2019-02-18T07:02:22.422Z,94281.33
2019-02-18T07:05:15.725Z,94279.45
2019-02-18T07:08:09.171Z,94280.30
2019-02-18T07:10:55.066Z,94282.98
2019-02-18T07:13:22.938Z,94279.39
2019-02-18T07:15:50.780Z,94278.58
2019-02-18T07:18:18.798Z,94280.39
2019-02-18T07:20:46.622Z,94285.67
2019-02-18T07:23:14.445Z,94282.14
2019-02-18T07:25:42.339Z,94282.73
2019-02-18T07:28:10.179Z,94289.41
2019-02-18T07:30:38.113Z,94286.10
2019-02-18T07:33:06.077Z,94282.48
2019-02-18T07:35:33.894Z,94270.50
2019-02-18T07:38:01.759Z,94268.55
2019-02-18T07:40:30.197Z,94273.05
2019-02-18T07:42:58.041Z,94269.68
2019-02-18T07:45:25.950Z,94272.06
2019-02-18T07:47:53.788Z,94266.23
2019-02-18T07:50:21.654Z,94264.78
2019-02-18T07:52:49.557Z,94263.95
2019-02-18T07:55:17.451Z,94259.95
2019-02-18T07:57:45.263Z,94261.89
2019-02-18T08:00:13.581Z,94261.59
2019-02-18T08:02:41.454Z,94266.75
2019-02-18T08:05:09.420Z,94256.53
2019-02-18T08:07:37.288Z,94253.50
2019-02-18T08:10:12.178Z,94258.00
2019-02-18T08:12:36.155Z,94249.03
2019-02-18T08:15:04.416Z,94254.28
2019-02-18T08:17:32.259Z,94251.23
2019-02-18T08:20:00.301Z,94253.23
2019-02-18T08:22:28.149Z,94243.75
2019-02-18T08:24:56.021Z,94243.71
2019-02-18T08:27:24.091Z,94232.46
2019-02-18T08:29:51.892Z,94225.73
2019-02-18T08:32:19.855Z,94228.48
2019-02-18T08:34:47.803Z,94227.21
2019-02-18T08:37:15.645Z,94227.70
2019-02-18T08:39:43.531Z,94224.89
2019-02-18T08:42:11.420Z,94217.91
2019-02-18T08:44:39.306Z,94219.26
2019-02-18T08:47:07.162Z,94211.48
2019-02-18T08:49:35.088Z,94216.64
2019-02-18T08:52:02.937Z,94209.96
2019-02-18T08:54:30.770Z,94204.00
2019-02-18T08:56:58.637Z,94200.51
2019-02-18T08:59:26.524Z,94193.91
2019-02-18T09:01:54.408Z,94197.51
2019-02-18T09:04:22.278Z,94198.86
2019-02-18T09:06:50.170Z,94197.93
2019-02-18T09:09:18.078Z,94197.55
2019-02-18T09:11:45.873Z,94197.00
2019-02-18T09:14:13.770Z,94196.27
2019-02-18T09:16:41.650Z,94197.81
2019-02-18T09:19:12.445Z,94198.05
2019-02-18T09:21:40.387Z,94196.62
2019-02-18T09:24:21.128Z,94188.78
2019-02-18T09:26:48.929Z,94191.83
2019-02-18T09:29:16.834Z,94189.36
2019-02-18T09:31:44.713Z,94188.14
2019-02-18T09:34:12.540Z,94182.80
2019-02-18T09:36:40.439Z,94178.62
2019-02-18T09:39:16.801Z,94185.38
2019-02-18T09:41:44.673Z,94189.52
2019-02-18T09:44:12.831Z,94185.72
2019-02-18T09:46:40.784Z,94181.20
2019-02-18T09:49:08.620Z,94179.88
2019-02-18T09:51:36.451Z,94175.78
2019-02-18T09:54:04.621Z,94177.73
2019-02-18T09:56:32.479Z,94169.68
2019-02-18T09:59:00.341Z,94169.39
2019-02-18T10:01:28.217Z,94165.65
2019-02-18T10:03:56.078Z,94164.27
2019-02-18T10:06:23.956Z,94163.33
2019-02-18T10:08:51.810Z,94160.30
2019-02-18T10:11:19.684Z,94160.86
2019-02-18T10:13:47.531Z,94162.00
2019-02-18T10:16:15.342Z,94157.88
2019-02-18T10:18:44.464Z,94163.08
2019-02-18T10:21:12.535Z,94156.48
2019-02-18T10:23:40.388Z,94153.50
2019-02-18T10:26:08.257Z,94149.45
2019-02-18T10:28:36.104Z,94152.06
2019-02-18T10:31:03.933Z,94148.73
2019-02-18T10:33:32.232Z,94149.78
2019-02-18T10:36:00.414Z,94146.80
2019-02-18T10:38:28.244Z,94147.70
2019-02-18T10:41:06.129Z,94146.09
2019-02-18T10:43:32.433Z,94144.84
2019-02-18T10:45:55.614Z,94137.56
2019-02-18T10:48:23.799Z,94139.16
2019-02-18T10:50:51.623Z,94138.96
2019-02-18T10:53:19.469Z,94129.95
2019-02-18T10:55:47.383Z,94121.84
2019-02-18T10:58:15.244Z,94118.45
2019-02-18T11:00:43.067Z,94115.33
2019-02-18T11:03:10.922Z,94109.64
2019-02-18T11:05:39.163Z,94106.97
2019-02-18T11:08:07.014Z,94104.99
2019-02-18T11:10:34.891Z,94097.92
2019-02-18T11:13:02.753Z,94092.88
2019-02-18T11:15:30.701Z,94099.55
2019-02-18T11:17:58.577Z,94091.31
2019-02-18T11:20:26.459Z,94086.45
2019-02-18T11:22:54.355Z,94091.12
2019-02-18T11:25:22.205Z,94088.09
2019-02-18T11:27:50.008Z,94078.29
2019-02-18T11:30:18.402Z,94073.29
2019-02-18T11:32:46.458Z,94075.48
2019-02-18T11:35:14.405Z,94079.62
2019-02-18T11:37:42.313Z,94084.56
2019-02-18T11:40:12.493Z,94080.81
2019-02-18T11:42:40.340Z,94074.39
2019-02-18T11:45:10.633Z,94075.81
2019-02-18T11:47:38.489Z,94072.13
2019-02-18T11:50:07.548Z,94077.98
2019-02-18T11:52:35.421Z,94065.63
2019-02-18T11:55:03.724Z,94070.16
2019-02-18T11:57:31.815Z,94056.77
2019-02-18T12:00:00.098Z,94054.63
2019-02-18T12:02:27.976Z,94061.16
2019-02-18T12:04:55.903Z,94050.12
2019-02-18T12:07:23.762Z,94050.04
2019-02-18T12:09:51.726Z,94054.16
2019-02-18T12:12:19.580Z,94046.08
2019-02-18T12:14:47.434Z,94040.63
2019-02-18T12:17:20.522Z,94040.12
2019-02-18T12:19:45.519Z,94037.67
2019-02-18T12:22:13.368Z,94031.08
2019-02-18T12:24:41.522Z,94029.77
2019-02-18T12:27:09.368Z,94028.84
2019-02-18T12:29:37.406Z,94023.33
2019-02-18T12:32:05.280Z,94021.97
2019-02-18T12:34:33.682Z,94021.97
2019-02-18T12:37:01.504Z,94015.67
2019-02-18T12:39:29.453Z,94015.61
2019-02-18T12:41:57.281Z,94011.54
2019-02-18T12:44:27.488Z,94013.10
2019-02-18T12:46:55.007Z,94006.22
2019-02-18T12:49:22.828Z,94002.11
2019-02-18T12:51:50.673Z,94005.92
2019-02-18T12:54:18.620Z,93998.92
2019-02-18T12:56:46.445Z,93996.47
2019-02-18T12:59:14.334Z,93992.11
2019-02-18T13:01:42.161Z,93987.55
2019-02-18T13:04:10.454Z,93986.34
2019-02-18T13:06:38.398Z,93986.73
2019-02-18T13:09:06.451Z,93983.74
2019-02-18T13:11:34.589Z,93979.37
2019-02-18T13:14:02.626Z,93975.56
2019-02-18T13:16:31.024Z,93971.39
2019-02-18T13:18:58.872Z,93964.81
2019-02-18T13:21:26.696Z,93962.55
2019-02-18T13:23:54.561Z,93958.05
2019-02-18T13:26:22.511Z,93953.25
2019-02-18T13:28:50.392Z,93953.92
2019-02-18T13:31:18.245Z,93953.92
2019-02-18T13:33:46.085Z,93956.31
2019-02-18T13:36:14.713Z,93954.57
2019-02-18T13:38:42.722Z,93947.94
2019-02-18T13:41:10.604Z,93947.35
2019-02-18T13:43:38.461Z,93945.09
2019-02-18T13:46:06.371Z,93948.87
2019-02-18T13:48:34.230Z,93942.25
2019-02-18T13:51:02.067Z,93946.09
2019-02-18T13:53:29.984Z,93945.06
2019-02-18T13:55:57.924Z,93939.84
2019-02-18T13:58:25.804Z,93940.28
2019-02-18T14:00:53.689Z,93939.72
2019-02-18T14:03:21.812Z,93939.88
2019-02-18T14:05:49.661Z,93940.28
2019-02-18T14:08:17.462Z,93940.87
2019-02-18T14:10:45.348Z,93942.06
2019-02-18T14:13:13.188Z,93937.36
2019-02-18T14:15:41.052Z,93929.61
2019-02-18T14:18:08.861Z,93932.59
2019-02-18T14:20:37.105Z,93933.06
2019-02-18T14:23:04.999Z,93932.67
2019-02-18T14:25:32.833Z,93931.41
2019-02-18T14:28:00.675Z,93934.05
2019-02-18T14:30:28.510Z,93926.02
2019-02-18T14:33:00.503Z,93930.85
2019-02-18T14:35:28.395Z,93932.86
2019-02-18T14:37:56.218Z,93929.88
2019-02-18T14:40:24.711Z,93930.60
2019-02-18T14:42:52.544Z,93929.28
2019-02-18T14:45:20.392Z,93934.73
2019-02-18T14:47:48.245Z,93930.34
2019-02-18T14:50:17.724Z,93933.12
2019-02-18T14:52:46.110Z,93927.27
2019-02-18T14:55:14.663Z,93930.20
2019-02-18T14:57:42.474Z,93931.23
2019-02-18T15:00:21.653Z,93930.20
2019-02-18T15:02:51.954Z,93932.03
2019-02-18T15:05:19.911Z,93925.96
2019-02-18T15:07:47.840Z,93929.87
2019-02-18T15:10:15.935Z,93925.09
2019-02-18T15:12:44.060Z,93918.48
2019-02-18T15:15:12.004Z,93920.83
2019-02-18T15:17:40.219Z,93913.65
2019-02-18T15:20:08.096Z,93911.43
2019-02-18T15:22:36.383Z,93912.91
2019-02-18T15:25:04.374Z,93915.98
2019-02-18T15:27:32.285Z,93908.76
2019-02-18T15:30:00.235Z,93908.19
2019-02-18T15:32:29.487Z,93899.50
2019-02-18T15:34:57.311Z,93908.31
2019-02-18T15:37:25.173Z,93899.23
2019-02-18T15:39:53.445Z,93896.28
2019-02-18T15:42:21.339Z,93890.86
2019-02-18T15:44:49.163Z,93891.59
2019-02-18T15:47:17.018Z,93897.47
2019-02-18T15:49:45.063Z,93890.25
2019-02-18T15:52:13.048Z,93887.77
2019-02-18T15:54:40.912Z,93892.45
2019-02-18T15:57:08.874Z,93890.11
2019-02-18T15:59:36.687Z,93890.98
2019-02-18T16:02:06.747Z,93887.59
2019-02-18T16:04:34.615Z,93894.92
2019-02-18T16:07:02.543Z,93887.89
2019-02-18T16:09:30.369Z,93889.22
2019-02-18T16:11:58.756Z,93890.65
2019-02-18T16:14:26.608Z,93895.92
2019-02-18T16:16:54.493Z,93900.00
2019-02-18T16:19:22.430Z,93899.12
2019-02-18T16:21:50.264Z,93897.95
2019-02-18T16:24:20.225Z,93895.73
2019-02-18T16:26:47.979Z,93899.36
2019-02-18T16:29:16.187Z,93898.81
2019-02-18T16:31:44.064Z,93903.34
2019-02-18T16:34:12.163Z,93901.66
2019-02-18T16:36:40.018Z,93903.42
2019-02-18T16:39:08.412Z,93909.38
2019-02-18T16:41:36.368Z,93904.47
2019-02-18T16:44:04.223Z,93897.23
2019-02-18T16:46:32.554Z,93907.55
2019-02-18T16:49:00.821Z,93905.27
2019-02-18T16:51:28.769Z,93912.45
2019-02-18T16:53:56.669Z,93920.23
2019-02-18T16:56:24.539Z,93923.38
2019-02-18T16:58:52.398Z,93922.20
2019-02-18T17:01:20.572Z,93922.31
2019-02-18T17:03:48.426Z,93932.64
2019-02-18T17:06:16.416Z,93937.28
2019-02-18T17:08:44.303Z,93933.55
2019-02-18T17:11:12.145Z,93926.77
2019-02-18T17:13:40.037Z,93931.52
2019-02-18T17:16:07.891Z,93934.92
2019-02-18T17:18:36.148Z,93938.53
2019-02-18T17:21:07.279Z,93938.25
2019-02-18T17:23:35.121Z,93937.38
2019-02-18T17:26:03.069Z,93941.63
2019-02-18T17:28:30.959Z,93947.64
2019-02-18T17:30:58.854Z,93948.00
2019-02-18T17:33:26.779Z,93941.52
2019-02-18T17:35:54.629Z,93944.30
2019-02-18T17:38:23.051Z,93943.10
2019-02-18T17:40:50.967Z,93948.81
2019-02-18T17:43:18.827Z,93951.90
2019-02-18T17:45:46.765Z,93949.67
2019-02-18T17:48:14.678Z,93954.91
2019-02-18T17:50:42.909Z,93954.35
2019-02-18T17:53:10.768Z,93956.34
2019-02-18T17:55:38.641Z,93959.17
2019-02-18T17:58:06.608Z,93962.87
2019-02-18T18:00:35.652Z,93966.50
2019-02-18T18:03:03.558Z,93966.75
2019-02-18T18:05:31.474Z,93963.64
2019-02-18T18:07:59.649Z,93955.12
2019-02-18T18:10:27.534Z,93962.55
2019-02-18T18:12:55.448Z,93962.73
2019-02-18T18:15:23.352Z,93961.60
2019-02-18T18:17:51.337Z,93968.63
2019-02-18T18:20:19.267Z,93972.09
2019-02-18T18:22:47.181Z,93974.95
2019-02-18T18:25:15.398Z,93978.47
2019-02-18T18:27:43.385Z,93969.14
2019-02-18T18:30:11.714Z,93977.53
2019-02-18T18:32:39.623Z,93974.72
2019-02-18T18:35:08.921Z,93982.34
2019-02-18T18:37:37.216Z,93976.45
2019-02-18T18:40:05.663Z,93975.58
2019-02-18T18:42:33.560Z,93971.81
2019-02-18T18:45:01.950Z,93977.02
2019-02-18T18:47:29.861Z,93977.27
2019-02-18T18:49:57.721Z,93982.31
2019-02-18T18:52:25.676Z,93979.13
2019-02-18T18:54:54.158Z,93987.37
2019-02-18T18:57:22.402Z,93985.61
2019-02-18T18:59:50.262Z,93983.36
2019-02-18T19:02:18.195Z,93985.88
2019-02-18T19:04:46.165Z,93992.08
2019-02-18T19:07:14.180Z,93997.01
2019-02-18T19:09:42.079Z,93992.80
2019-02-18T19:12:10.370Z,93997.06
2019-02-18T19:14:38.238Z,93994.75
2019-02-18T19:17:06.213Z,93990.28
2019-02-18T19:19:34.130Z,93992.08
2019-02-18T19:22:02.186Z,93994.75
2019-02-18T19:24:30.104Z,94002.98
2019-02-18T19:26:57.993Z,94009.23
2019-02-18T19:29:25.895Z,94005.36
2019-02-18T19:31:53.787Z,94009.92
2019-02-18T19:34:21.690Z,94005.72
2019-02-18T19:36:49.564Z,94011.09
2019-02-18T19:39:18.234Z,94011.81
2019-02-18T19:41:51.061Z,94008.75
2019-02-18T19:44:23.159Z,94006.80
2019-02-18T19:46:51.354Z,94000.77
2019-02-18T19:49:19.321Z,94003.20
2019-02-18T19:51:47.250Z,94001.91
2019-02-18T19:54:15.074Z,94002.06
2019-02-18T19:56:43.086Z,94002.83
2019-02-18T19:59:11.076Z,94005.73
2019-02-18T20:01:38.950Z,94007.34
2019-02-18T20:04:06.854Z,94003.62
2019-02-18T20:06:34.997Z,94003.47
2019-02-18T20:09:05.919Z,94006.40
2019-02-18T20:11:33.757Z,94000.56
2019-02-18T20:14:02.148Z,94009.72
2019-02-18T20:16:30.051Z,94010.69
2019-02-18T20:18:57.979Z,94012.63
2019-02-18T20:21:25.893Z,94014.28
2019-02-18T20:23:53.839Z,94015.91
2019-02-18T20:26:21.738Z,94012.64
2019-02-18T20:28:49.607Z,94009.70
2019-02-18T20:31:17.632Z,94014.21
2019-02-18T20:33:46.133Z,94018.09
2019-02-18T20:36:14.022Z,94019.94
2019-02-18T20:38:41.926Z,94015.69
2019-02-18T20:41:09.853Z,94015.20
2019-02-18T20:43:37.863Z,94020.89
2019-02-18T20:46:06.177Z,94019.27
2019-02-18T20:48:34.024Z,94015.02
2019-02-18T20:51:02.023Z,94021.86
2019-02-18T20:53:29.927Z,94023.43
2019-02-18T20:55:57.828Z,94021.12
2019-02-18T20:58:25.719Z,94017.48
2019-02-18T21:00:53.597Z,94026.86
2019-02-18T21:03:21.495Z,94024.92
2019-02-18T21:05:49.420Z,94021.99
2019-02-18T21:08:17.298Z,94020.70
2019-02-18T21:10:45.207Z,94017.81
2019-02-18T21:13:13.136Z,94022.19
2019-02-18T21:15:40.979Z,94024.67
2019-02-18T21:18:08.887Z,94016.59
2019-02-18T21:20:36.825Z,94021.45
2019-02-18T21:23:04.796Z,94023.16
2019-02-18T21:25:32.685Z,94016.92
2019-02-18T21:28:00.576Z,94022.36
2019-02-18T21:30:28.460Z,94022.89
2019-02-18T21:32:56.340Z,94023.81
2019-02-18T21:35:24.573Z,94021.48
2019-02-18T21:37:52.489Z,94026.55
2019-02-18T21:40:20.301Z,94028.02
2019-02-18T21:42:48.523Z,94023.16
2019-02-18T21:45:16.387Z,94026.67
2019-02-18T21:47:44.259Z,94020.77
2019-02-18T21:50:12.436Z,94022.38
2019-02-18T21:52:40.472Z,94025.58
2019-02-18T21:55:08.911Z,94020.94
2019-02-18T21:57:36.776Z,94025.39
2019-02-18T22:00:12.830Z,94024.47
2019-02-18T22:02:40.682Z,94026.66
2019-02-18T22:05:08.588Z,94020.03
2019-02-18T22:07:36.893Z,94027.48
2019-02-18T22:10:04.789Z,94021.69
2019-02-18T22:12:32.653Z,94019.33
2019-02-18T22:15:00.559Z,94017.77
2019-02-18T22:17:28.434Z,94022.52
2019-02-18T22:19:56.357Z,94019.92
2019-02-18T22:22:24.260Z,94018.22
2019-02-18T22:24:52.569Z,94016.59
2019-02-18T22:27:21.079Z,94020.23
2019-02-18T22:29:48.952Z,94016.30
2019-02-18T22:32:16.827Z,94016.22
2019-02-18T22:34:44.686Z,94014.23
2019-02-18T22:37:12.536Z,94019.16
2019-02-18T22:39:40.400Z,94024.55
2019-02-18T22:42:08.603Z,94023.36
2019-02-18T22:44:41.811Z,94023.91
2019-02-18T22:47:06.252Z,94025.78
2019-02-18T22:49:34.102Z,94025.44
2019-02-18T22:52:01.981Z,94013.06
2019-02-18T22:54:29.796Z,94024.25
2019-02-18T22:56:57.666Z,94020.09
2019-02-18T22:59:25.938Z,94026.53
2019-02-18T23:01:53.812Z,94027.03
2019-02-18T23:04:21.956Z,94024.91
2019-02-18T23:06:49.868Z,94031.56
2019-02-18T23:09:17.937Z,94025.80
2019-02-18T23:11:45.814Z,94030.88
2019-02-18T23:14:13.754Z,94027.35
2019-02-18T23:16:41.608Z,94027.35
2019-02-18T23:19:09.508Z,94031.45
2019-02-18T23:21:37.372Z,94018.95
2019-02-18T23:24:05.234Z,94026.09
2019-02-18T23:26:33.083Z,94029.22
2019-02-18T23:29:00.952Z,94027.41
2019-02-18T23:31:28.807Z,94030.05
2019-02-18T23:33:56.679Z,94030.08
2019-02-18T23:36:24.829Z,94030.77
2019-02-18T23:38:52.740Z,94034.89
2019-02-18T23:41:20.519Z,94030.52
2019-02-18T23:43:48.403Z,94028.94
2019-02-18T23:46:16.277Z,94032.06
2019-02-18T23:48:44.138Z,94029.61
2019-02-18T23:51:11.975Z,94027.97
2019-02-18T23:53:39.897Z,94026.16
2019-02-18T23:56:07.741Z,94038.54
2019-02-18T23:58:35.589Z,94037.41
